sensor_id;sensor_type;location;lat;lon;timestamp;temperature;humidity
74224;SHT31;62585;49.706;18.216;2023-06-14T00:01:52;10.01;85.04
74224;SHT31;62585;49.706;18.216;2023-06-14T00:04:18;9.94;85.33
74224;SHT31;62585;49.706;18.216;2023-06-14T00:06:46;9.84;85.62
74224;SHT31;62585;49.706;18.216;2023-06-14T00:09:12;9.70;85.89
74224;SHT31;62585;49.706;18.216;2023-06-14T00:11:39;9.64;86.47
74224;SHT31;62585;49.706;18.216;2023-06-14T00:14:05;9.67;86.81
74224;SHT31;62585;49.706;18.216;2023-06-14T00:16:33;9.71;86.38
74224;SHT31;62585;49.706;18.216;2023-06-14T00:19:04;9.64;86.73
74224;SHT31;62585;49.706;18.216;2023-06-14T00:21:30;9.66;87.11
74224;SHT31;62585;49.706;18.216;2023-06-14T00:24:00;9.58;87.20
74224;SHT31;62585;49.706;18.216;2023-06-14T00:26:26;9.56;87.58
74224;SHT31;62585;49.706;18.216;2023-06-14T00:28:53;9.53;87.71
74224;SHT31;62585;49.706;18.216;2023-06-14T00:31:19;9.47;88.02
74224;SHT31;62585;49.706;18.216;2023-06-14T00:33:46;9.51;87.76
74224;SHT31;62585;49.706;18.216;2023-06-14T00:36:12;9.56;87.61
74224;SHT31;62585;49.706;18.216;2023-06-14T00:38:38;9.60;87.35
74224;SHT31;62585;49.706;18.216;2023-06-14T00:41:04;9.42;87.65
74224;SHT31;62585;49.706;18.216;2023-06-14T00:43:30;9.25;88.16
74224;SHT31;62585;49.706;18.216;2023-06-14T00:45:56;9.39;87.21
74224;SHT31;62585;49.706;18.216;2023-06-14T00:48:25;9.19;88.00
74224;SHT31;62585;49.706;18.216;2023-06-14T00:50:51;9.26;87.81
74224;SHT31;62585;49.706;18.216;2023-06-14T00:53:18;9.16;87.80
74224;SHT31;62585;49.706;18.216;2023-06-14T00:55:46;9.01;88.55
74224;SHT31;62585;49.706;18.216;2023-06-14T00:58:13;9.07;88.21
74224;SHT31;62585;49.706;18.216;2023-06-14T01:00:39;8.98;88.14
74224;SHT31;62585;49.706;18.216;2023-06-14T01:03:06;8.97;88.03
74224;SHT31;62585;49.706;18.216;2023-06-14T01:05:32;8.84;88.33
74224;SHT31;62585;49.706;18.216;2023-06-14T01:13:20;8.64;89.61
74224;SHT31;62585;49.706;18.216;2023-06-14T01:15:47;8.68;89.75
74224;SHT31;62585;49.706;18.216;2023-06-14T01:18:14;8.89;89.01
74224;SHT31;62585;49.706;18.216;2023-06-14T01:20:44;8.98;88.65
74224;SHT31;62585;49.706;18.216;2023-06-14T01:23:20;8.91;88.59
74224;SHT31;62585;49.706;18.216;2023-06-14T01:25:47;8.91;89.20
74224;SHT31;62585;49.706;18.216;2023-06-14T01:28:20;8.89;89.44
74224;SHT31;62585;49.706;18.216;2023-06-14T01:30:52;8.99;89.02
74224;SHT31;62585;49.706;18.216;2023-06-14T01:33:21;8.91;89.19
74224;SHT31;62585;49.706;18.216;2023-06-14T01:35:49;8.70;89.52
74224;SHT31;62585;49.706;18.216;2023-06-14T01:38:17;8.68;89.68
74224;SHT31;62585;49.706;18.216;2023-06-14T01:40:45;8.47;89.88
74224;SHT31;62585;49.706;18.216;2023-06-14T01:43:13;8.56;89.52
74224;SHT31;62585;49.706;18.216;2023-06-14T01:45:41;8.64;88.68
74224;SHT31;62585;49.706;18.216;2023-06-14T01:48:07;8.75;89.37
74224;SHT31;62585;49.706;18.216;2023-06-14T01:50:33;8.72;89.42
74224;SHT31;62585;49.706;18.216;2023-06-14T01:52:59;8.77;89.51
74224;SHT31;62585;49.706;18.216;2023-06-14T01:55:26;8.75;88.80
74224;SHT31;62585;49.706;18.216;2023-06-14T01:57:52;8.70;88.55
74224;SHT31;62585;49.706;18.216;2023-06-14T02:00:20;8.57;89.20
74224;SHT31;62585;49.706;18.216;2023-06-14T02:02:47;8.49;88.78
74224;SHT31;62585;49.706;18.216;2023-06-14T02:05:13;8.40;90.59
74224;SHT31;62585;49.706;18.216;2023-06-14T02:07:39;8.51;90.35
74224;SHT31;62585;49.706;18.216;2023-06-14T02:10:06;8.47;90.70
74224;SHT31;62585;49.706;18.216;2023-06-14T02:12:31;8.37;90.98
74224;SHT31;62585;49.706;18.216;2023-06-14T02:14:58;8.41;90.85
74224;SHT31;62585;49.706;18.216;2023-06-14T02:17:24;8.30;90.84
74224;SHT31;62585;49.706;18.216;2023-06-14T02:19:50;8.39;90.50
74224;SHT31;62585;49.706;18.216;2023-06-14T02:22:16;8.33;90.90
74224;SHT31;62585;49.706;18.216;2023-06-14T02:24:43;8.28;91.23
74224;SHT31;62585;49.706;18.216;2023-06-14T02:27:09;8.40;91.37
74224;SHT31;62585;49.706;18.216;2023-06-14T02:29:36;8.53;92.10
74224;SHT31;62585;49.706;18.216;2023-06-14T02:32:03;8.75;93.12
74224;SHT31;62585;49.706;18.216;2023-06-14T02:34:29;8.91;93.36
74224;SHT31;62585;49.706;18.216;2023-06-14T02:36:55;9.02;93.58
74224;SHT31;62585;49.706;18.216;2023-06-14T02:39:21;9.18;93.35
74224;SHT31;62585;49.706;18.216;2023-06-14T02:41:49;9.27;92.88
74224;SHT31;62585;49.706;18.216;2023-06-14T02:44:18;9.30;92.68
74224;SHT31;62585;49.706;18.216;2023-06-14T02:46:43;9.32;92.98
74224;SHT31;62585;49.706;18.216;2023-06-14T02:49:11;9.30;93.18
74224;SHT31;62585;49.706;18.216;2023-06-14T02:51:36;9.23;94.07
74224;SHT31;62585;49.706;18.216;2023-06-14T02:54:02;9.26;94.31
74224;SHT31;62585;49.706;18.216;2023-06-14T02:56:28;9.37;94.29
74224;SHT31;62585;49.706;18.216;2023-06-14T02:58:55;9.43;93.69
74224;SHT31;62585;49.706;18.216;2023-06-14T03:01:20;9.44;93.33
74224;SHT31;62585;49.706;18.216;2023-06-14T03:03:47;9.57;92.91
74224;SHT31;62585;49.706;18.216;2023-06-14T03:06:13;9.46;93.12
74224;SHT31;62585;49.706;18.216;2023-06-14T03:08:40;9.30;93.52
74224;SHT31;62585;49.706;18.216;2023-06-14T03:11:07;9.26;94.02
74224;SHT31;62585;49.706;18.216;2023-06-14T03:13:36;9.32;93.76
74224;SHT31;62585;49.706;18.216;2023-06-14T03:16:03;9.19;93.69
74224;SHT31;62585;49.706;18.216;2023-06-14T03:18:29;9.15;94.04
74224;SHT31;62585;49.706;18.216;2023-06-14T03:20:56;9.11;94.24
74224;SHT31;62585;49.706;18.216;2023-06-14T03:23:24;9.15;94.32
74224;SHT31;62585;49.706;18.216;2023-06-14T03:25:51;9.14;94.18
74224;SHT31;62585;49.706;18.216;2023-06-14T03:28:17;9.12;94.34
74224;SHT31;62585;49.706;18.216;2023-06-14T03:30:43;9.27;94.12
74224;SHT31;62585;49.706;18.216;2023-06-14T03:33:09;9.33;94.22
74224;SHT31;62585;49.706;18.216;2023-06-14T03:38:10;9.19;94.81
74224;SHT31;62585;49.706;18.216;2023-06-14T03:40:36;9.35;94.88
74224;SHT31;62585;49.706;18.216;2023-06-14T03:43:02;9.40;94.68
74224;SHT31;62585;49.706;18.216;2023-06-14T03:45:28;9.56;94.24
74224;SHT31;62585;49.706;18.216;2023-06-14T03:47:56;9.60;94.11
74224;SHT31;62585;49.706;18.216;2023-06-14T03:50:22;9.61;94.11
74224;SHT31;62585;49.706;18.216;2023-06-14T03:52:48;9.64;94.04
74224;SHT31;62585;49.706;18.216;2023-06-14T03:55:15;9.74;93.65
74224;SHT31;62585;49.706;18.216;2023-06-14T03:57:41;9.71;93.79
74224;SHT31;62585;49.706;18.216;2023-06-14T04:00:09;9.71;93.92
74224;SHT31;62585;49.706;18.216;2023-06-14T04:02:36;9.85;93.23
74224;SHT31;62585;49.706;18.216;2023-06-14T04:05:03;9.84;93.19
74224;SHT31;62585;49.706;18.216;2023-06-14T04:07:29;9.75;93.69
74224;SHT31;62585;49.706;18.216;2023-06-14T04:09:55;9.83;93.60
74224;SHT31;62585;49.706;18.216;2023-06-14T04:12:21;9.84;93.30
74224;SHT31;62585;49.706;18.216;2023-06-14T04:14:47;9.98;92.84
74224;SHT31;62585;49.706;18.216;2023-06-14T04:17:12;9.81;93.46
74224;SHT31;62585;49.706;18.216;2023-06-14T04:19:38;9.98;93.62
74224;SHT31;62585;49.706;18.216;2023-06-14T04:22:05;9.90;93.38
74224;SHT31;62585;49.706;18.216;2023-06-14T04:24:31;10.01;93.56
74224;SHT31;62585;49.706;18.216;2023-06-14T04:27:00;10.05;93.09
74224;SHT31;62585;49.706;18.216;2023-06-14T04:29:29;10.16;93.22
74224;SHT31;62585;49.706;18.216;2023-06-14T04:31:55;10.21;93.36
74224;SHT31;62585;49.706;18.216;2023-06-14T04:34:25;10.21;92.93
74224;SHT31;62585;49.706;18.216;2023-06-14T04:36:56;10.21;93.31
74224;SHT31;62585;49.706;18.216;2023-06-14T04:39:22;10.32;92.66
74224;SHT31;62585;49.706;18.216;2023-06-14T04:41:49;10.46;91.65
74224;SHT31;62585;49.706;18.216;2023-06-14T04:44:21;10.53;91.71
74224;SHT31;62585;49.706;18.216;2023-06-14T04:46:49;10.63;91.55
74224;SHT31;62585;49.706;18.216;2023-06-14T04:49:16;10.64;91.42
74224;SHT31;62585;49.706;18.216;2023-06-14T04:51:42;10.63;91.82
74224;SHT31;62585;49.706;18.216;2023-06-14T04:54:10;10.66;91.58
74224;SHT31;62585;49.706;18.216;2023-06-14T04:56:40;10.79;91.51
74224;SHT31;62585;49.706;18.216;2023-06-14T04:59:06;10.81;91.36
74224;SHT31;62585;49.706;18.216;2023-06-14T05:01:34;10.81;90.87
74224;SHT31;62585;49.706;18.216;2023-06-14T05:04:00;10.97;90.89
74224;SHT31;62585;49.706;18.216;2023-06-14T05:06:25;11.00;90.63
74224;SHT31;62585;49.706;18.216;2023-06-14T05:08:53;11.03;90.53
74224;SHT31;62585;49.706;18.216;2023-06-14T05:11:19;10.98;90.27
74224;SHT31;62585;49.706;18.216;2023-06-14T05:13:46;11.12;90.12
74224;SHT31;62585;49.706;18.216;2023-06-14T05:16:12;10.96;89.60
74224;SHT31;62585;49.706;18.216;2023-06-14T05:18:39;11.04;89.30
74224;SHT31;62585;49.706;18.216;2023-06-14T05:21:05;11.17;89.77
74224;SHT31;62585;49.706;18.216;2023-06-14T05:23:32;11.17;88.90
74224;SHT31;62585;49.706;18.216;2023-06-14T05:25:58;11.31;88.32
74224;SHT31;62585;49.706;18.216;2023-06-14T05:28:24;11.24;88.78
74224;SHT31;62585;49.706;18.216;2023-06-14T05:30:51;11.39;87.72
74224;SHT31;62585;49.706;18.216;2023-06-14T05:33:17;11.34;87.58
74224;SHT31;62585;49.706;18.216;2023-06-14T05:35:43;11.31;87.92
74224;SHT31;62585;49.706;18.216;2023-06-14T05:38:09;11.46;87.87
74224;SHT31;62585;49.706;18.216;2023-06-14T05:40:34;11.59;87.77
74224;SHT31;62585;49.706;18.216;2023-06-14T05:43:00;11.69;87.80
74224;SHT31;62585;49.706;18.216;2023-06-14T05:45:26;11.69;86.93
74224;SHT31;62585;49.706;18.216;2023-06-14T05:47:52;11.83;86.21
74224;SHT31;62585;49.706;18.216;2023-06-14T05:50:20;11.79;86.19
74224;SHT31;62585;49.706;18.216;2023-06-14T05:52:46;11.93;86.18
74224;SHT31;62585;49.706;18.216;2023-06-14T05:55:12;11.90;86.75
74224;SHT31;62585;49.706;18.216;2023-06-14T05:57:38;12.05;86.65
74224;SHT31;62585;49.706;18.216;2023-06-14T06:00:04;11.87;87.12
74224;SHT31;62585;49.706;18.216;2023-06-14T06:02:44;11.69;87.46
74224;SHT31;62585;49.706;18.216;2023-06-14T06:05:13;11.97;88.11
74224;SHT31;62585;49.706;18.216;2023-06-14T06:07:41;12.04;87.69
74224;SHT31;62585;49.706;18.216;2023-06-14T06:10:07;12.05;86.83
74224;SHT31;62585;49.706;18.216;2023-06-14T06:12:33;11.98;86.64
74224;SHT31;62585;49.706;18.216;2023-06-14T06:14:59;12.01;86.70
74224;SHT31;62585;49.706;18.216;2023-06-14T06:17:26;12.14;85.94
74224;SHT31;62585;49.706;18.216;2023-06-14T06:19:51;12.24;85.95
74224;SHT31;62585;49.706;18.216;2023-06-14T06:22:18;12.17;84.66
74224;SHT31;62585;49.706;18.216;2023-06-14T06:24:46;12.30;84.95
74224;SHT31;62585;49.706;18.216;2023-06-14T06:27:17;12.34;84.92
74224;SHT31;62585;49.706;18.216;2023-06-14T06:29:46;12.51;85.57
74224;SHT31;62585;49.706;18.216;2023-06-14T06:32:17;12.55;84.31
74224;SHT31;62585;49.706;18.216;2023-06-14T06:34:43;12.52;83.71
74224;SHT31;62585;49.706;18.216;2023-06-14T06:37:11;12.46;83.86
74224;SHT31;62585;49.706;18.216;2023-06-14T06:39:36;12.27;84.12
74224;SHT31;62585;49.706;18.216;2023-06-14T06:42:03;12.49;84.56
74224;SHT31;62585;49.706;18.216;2023-06-14T06:44:29;12.45;83.59
74224;SHT31;62585;49.706;18.216;2023-06-14T06:46:55;12.41;83.72
74224;SHT31;62585;49.706;18.216;2023-06-14T06:49:20;12.38;85.23
74224;SHT31;62585;49.706;18.216;2023-06-14T06:52:00;12.42;84.61
74224;SHT31;62585;49.706;18.216;2023-06-14T06:54:26;12.31;85.11
74224;SHT31;62585;49.706;18.216;2023-06-14T06:56:52;12.32;85.00
74224;SHT31;62585;49.706;18.216;2023-06-14T06:59:18;12.37;84.55
74224;SHT31;62585;49.706;18.216;2023-06-14T07:01:44;12.30;84.67
74224;SHT31;62585;49.706;18.216;2023-06-14T07:04:11;12.56;84.44
74224;SHT31;62585;49.706;18.216;2023-06-14T07:06:38;12.66;82.99
74224;SHT31;62585;49.706;18.216;2023-06-14T07:09:03;12.83;83.56
74224;SHT31;62585;49.706;18.216;2023-06-14T07:11:34;12.83;82.85
74224;SHT31;62585;49.706;18.216;2023-06-14T07:13:59;12.76;82.36
74224;SHT31;62585;49.706;18.216;2023-06-14T07:16:25;12.76;82.73
74224;SHT31;62585;49.706;18.216;2023-06-14T07:18:51;12.65;83.61
74224;SHT31;62585;49.706;18.216;2023-06-14T07:21:18;12.63;83.12
74224;SHT31;62585;49.706;18.216;2023-06-14T07:23:43;12.62;83.82
74224;SHT31;62585;49.706;18.216;2023-06-14T07:26:09;12.46;84.16
74224;SHT31;62585;49.706;18.216;2023-06-14T07:28:35;12.42;85.48
74224;SHT31;62585;49.706;18.216;2023-06-14T07:31:01;12.63;83.98
74224;SHT31;62585;49.706;18.216;2023-06-14T07:33:28;12.73;83.83
74224;SHT31;62585;49.706;18.216;2023-06-14T07:35:54;12.92;83.64
74224;SHT31;62585;49.706;18.216;2023-06-14T07:38:20;12.96;83.74
74224;SHT31;62585;49.706;18.216;2023-06-14T07:40:46;13.16;83.78
74224;SHT31;62585;49.706;18.216;2023-06-14T07:43:12;13.26;83.52
74224;SHT31;62585;49.706;18.216;2023-06-14T07:45:38;13.27;82.37
74224;SHT31;62585;49.706;18.216;2023-06-14T07:48:04;13.31;81.87
74224;SHT31;62585;49.706;18.216;2023-06-14T07:50:30;13.33;82.29
74224;SHT31;62585;49.706;18.216;2023-06-14T07:52:56;13.68;81.48
74224;SHT31;62585;49.706;18.216;2023-06-14T07:55:22;14.02;80.72
74224;SHT31;62585;49.706;18.216;2023-06-14T07:57:47;14.12;81.97
74224;SHT31;62585;49.706;18.216;2023-06-14T08:00:14;14.30;79.04
74224;SHT31;62585;49.706;18.216;2023-06-14T08:02:43;14.29;80.53
74224;SHT31;62585;49.706;18.216;2023-06-14T08:05:12;13.93;78.80
74224;SHT31;62585;49.706;18.216;2023-06-14T08:07:39;13.76;80.22
74224;SHT31;62585;49.706;18.216;2023-06-14T08:10:05;14.16;81.33
74224;SHT31;62585;49.706;18.216;2023-06-14T08:12:32;13.98;80.26
74224;SHT31;62585;49.706;18.216;2023-06-14T08:14:58;13.96;79.80
74224;SHT31;62585;49.706;18.216;2023-06-14T08:17:24;14.05;79.83
74224;SHT31;62585;49.706;18.216;2023-06-14T08:19:50;14.09;81.71
74224;SHT31;62585;49.706;18.216;2023-06-14T08:22:16;14.06;81.32
74224;SHT31;62585;49.706;18.216;2023-06-14T08:24:44;14.19;81.23
74224;SHT31;62585;49.706;18.216;2023-06-14T08:27:10;14.10;80.09
74224;SHT31;62585;49.706;18.216;2023-06-14T08:29:36;13.85;80.34
74224;SHT31;62585;49.706;18.216;2023-06-14T08:32:01;13.89;80.96
74224;SHT31;62585;49.706;18.216;2023-06-14T08:34:27;13.93;80.68
74224;SHT31;62585;49.706;18.216;2023-06-14T08:36:53;13.92;80.56
74224;SHT31;62585;49.706;18.216;2023-06-14T08:39:19;14.22;79.82
74224;SHT31;62585;49.706;18.216;2023-06-14T08:41:46;14.14;80.11
74224;SHT31;62585;49.706;18.216;2023-06-14T08:44:13;14.59;78.45
74224;SHT31;62585;49.706;18.216;2023-06-14T08:46:39;14.96;78.80
74224;SHT31;62585;49.706;18.216;2023-06-14T08:49:06;14.95;78.59
74224;SHT31;62585;49.706;18.216;2023-06-14T08:51:33;15.20;77.64
74224;SHT31;62585;49.706;18.216;2023-06-14T08:54:02;14.91;75.48
74224;SHT31;62585;49.706;18.216;2023-06-14T08:56:30;15.13;75.96
74224;SHT31;62585;49.706;18.216;2023-06-14T08:59:00;14.56;76.00
74224;SHT31;62585;49.706;18.216;2023-06-14T09:01:37;14.85;76.40
74224;SHT31;62585;49.706;18.216;2023-06-14T09:04:04;14.92;76.22
74224;SHT31;62585;49.706;18.216;2023-06-14T09:06:33;15.83;75.41
74224;SHT31;62585;49.706;18.216;2023-06-14T09:08:59;16.46;73.07
74224;SHT31;62585;49.706;18.216;2023-06-14T09:11:25;17.17;71.13
74224;SHT31;62585;49.706;18.216;2023-06-14T09:13:52;16.57;71.51
74224;SHT31;62585;49.706;18.216;2023-06-14T09:16:18;16.30;70.58
74224;SHT31;62585;49.706;18.216;2023-06-14T09:18:46;16.83;69.95
74224;SHT31;62585;49.706;18.216;2023-06-14T09:21:15;17.39;70.27
74224;SHT31;62585;49.706;18.216;2023-06-14T09:23:44;17.35;70.44
74224;SHT31;62585;49.706;18.216;2023-06-14T09:26:17;17.89;67.66
74224;SHT31;62585;49.706;18.216;2023-06-14T09:28:49;17.59;68.81
74224;SHT31;62585;49.706;18.216;2023-06-14T09:31:19;17.39;70.40
74224;SHT31;62585;49.706;18.216;2023-06-14T09:33:47;17.06;73.11
74224;SHT31;62585;49.706;18.216;2023-06-14T09:36:24;16.57;71.72
74224;SHT31;62585;49.706;18.216;2023-06-14T09:38:55;16.36;72.89
74224;SHT31;62585;49.706;18.216;2023-06-14T09:41:38;16.49;72.38
74224;SHT31;62585;49.706;18.216;2023-06-14T09:44:06;16.50;72.90
74224;SHT31;62585;49.706;18.216;2023-06-14T09:46:33;16.57;72.24
74224;SHT31;62585;49.706;18.216;2023-06-14T09:49:01;16.43;71.04
74224;SHT31;62585;49.706;18.216;2023-06-14T09:51:28;16.49;70.48
74224;SHT31;62585;49.706;18.216;2023-06-14T09:54:01;16.70;69.82
74224;SHT31;62585;49.706;18.216;2023-06-14T09:56:31;17.04;68.50
74224;SHT31;62585;49.706;18.216;2023-06-14T09:59:04;17.06;69.56
74224;SHT31;62585;49.706;18.216;2023-06-14T10:01:31;18.01;69.20
74224;SHT31;62585;49.706;18.216;2023-06-14T10:04:05;18.11;66.59
74224;SHT31;62585;49.706;18.216;2023-06-14T10:06:32;17.89;67.46
74224;SHT31;62585;49.706;18.216;2023-06-14T10:08:59;17.38;67.39
74224;SHT31;62585;49.706;18.216;2023-06-14T10:11:26;17.53;67.72
74224;SHT31;62585;49.706;18.216;2023-06-14T10:13:54;18.28;66.42
74224;SHT31;62585;49.706;18.216;2023-06-14T10:16:31;18.49;61.23
74224;SHT31;62585;49.706;18.216;2023-06-14T10:19:11;18.85;63.72
74224;SHT31;62585;49.706;18.216;2023-06-14T10:24:17;18.66;65.22
74224;SHT31;62585;49.706;18.216;2023-06-14T10:26:54;18.32;66.42
74224;SHT31;62585;49.706;18.216;2023-06-14T10:29:20;17.93;65.09
74224;SHT31;62585;49.706;18.216;2023-06-14T10:31:50;17.73;64.71
74224;SHT31;62585;49.706;18.216;2023-06-14T10:34:26;18.04;64.91
74224;SHT31;62585;49.706;18.216;2023-06-14T10:37:06;18.70;63.82
74224;SHT31;62585;49.706;18.216;2023-06-14T10:39:42;18.99;60.76
74224;SHT31;62585;49.706;18.216;2023-06-14T10:42:11;18.65;61.22
74224;SHT31;62585;49.706;18.216;2023-06-14T10:44:50;18.69;60.65
74224;SHT31;62585;49.706;18.216;2023-06-14T10:47:33;19.18;62.10
74224;SHT31;62585;49.706;18.216;2023-06-14T10:50:11;19.78;58.67
74224;SHT31;62585;49.706;18.216;2023-06-14T10:52:41;19.65;58.87
74224;SHT31;62585;49.706;18.216;2023-06-14T10:57:46;18.40;62.62
74224;SHT31;62585;49.706;18.216;2023-06-14T11:00:14;18.20;64.58
74224;SHT31;62585;49.706;18.216;2023-06-14T11:08:46;19.21;62.04
74224;SHT31;62585;49.706;18.216;2023-06-14T11:11:17;20.10;62.43
74224;SHT31;62585;49.706;18.216;2023-06-14T11:13:45;20.08;59.53
74224;SHT31;62585;49.706;18.216;2023-06-14T11:16:12;19.72;59.65
74224;SHT31;62585;49.706;18.216;2023-06-14T11:18:39;20.09;59.58
74224;SHT31;62585;49.706;18.216;2023-06-14T11:21:04;19.61;60.65
74224;SHT31;62585;49.706;18.216;2023-06-14T11:23:30;18.97;62.81
74224;SHT31;62585;49.706;18.216;2023-06-14T11:25:56;18.80;61.34
74224;SHT31;62585;49.706;18.216;2023-06-14T11:28:22;18.70;62.54
74224;SHT31;62585;49.706;18.216;2023-06-14T11:30:59;18.44;63.04
74224;SHT31;62585;49.706;18.216;2023-06-14T11:33:25;18.52;63.10
74224;SHT31;62585;49.706;18.216;2023-06-14T11:35:51;18.55;62.28
74224;SHT31;62585;49.706;18.216;2023-06-14T11:38:17;19.00;61.77
74224;SHT31;62585;49.706;18.216;2023-06-14T11:40:43;19.87;59.71
74224;SHT31;62585;49.706;18.216;2023-06-14T11:43:09;20.67;58.99
74224;SHT31;62585;49.706;18.216;2023-06-14T11:45:35;20.96;57.24
74224;SHT31;62585;49.706;18.216;2023-06-14T11:48:04;21.20;54.58
74224;SHT31;62585;49.706;18.216;2023-06-14T11:50:30;21.09;54.92
74224;SHT31;62585;49.706;18.216;2023-06-14T11:52:59;21.12;55.81
74224;SHT31;62585;49.706;18.216;2023-06-14T11:55:35;20.99;55.35
74224;SHT31;62585;49.706;18.216;2023-06-14T11:58:01;20.44;55.33
74224;SHT31;62585;49.706;18.216;2023-06-14T12:00:27;19.87;56.71
74224;SHT31;62585;49.706;18.216;2023-06-14T12:02:54;20.51;55.68
74224;SHT31;62585;49.706;18.216;2023-06-14T12:05:21;20.87;55.94
74224;SHT31;62585;49.706;18.216;2023-06-14T12:07:48;20.95;56.35
74224;SHT31;62585;49.706;18.216;2023-06-14T12:10:15;21.19;55.83
74224;SHT31;62585;49.706;18.216;2023-06-14T12:12:42;21.09;55.41
74224;SHT31;62585;49.706;18.216;2023-06-14T12:15:09;20.65;58.11
74224;SHT31;62585;49.706;18.216;2023-06-14T12:17:37;20.43;59.05
74224;SHT31;62585;49.706;18.216;2023-06-14T12:20:11;20.06;60.55
74224;SHT31;62585;49.706;18.216;2023-06-14T12:22:58;19.83;60.76
74224;SHT31;62585;49.706;18.216;2023-06-14T12:25:34;20.30;59.66
74224;SHT31;62585;49.706;18.216;2023-06-14T12:28:07;20.82;56.98
74224;SHT31;62585;49.706;18.216;2023-06-14T12:30:35;21.33;52.39
74224;SHT31;62585;49.706;18.216;2023-06-14T12:33:04;21.51;53.86
74224;SHT31;62585;49.706;18.216;2023-06-14T12:35:31;21.56;54.82
74224;SHT31;62585;49.706;18.216;2023-06-14T12:37:57;21.51;53.68
74224;SHT31;62585;49.706;18.216;2023-06-14T12:40:22;20.23;55.71
74224;SHT31;62585;49.706;18.216;2023-06-14T12:42:49;19.74;59.17
74224;SHT31;62585;49.706;18.216;2023-06-14T12:45:15;19.58;57.13
74224;SHT31;62585;49.706;18.216;2023-06-14T12:47:41;19.16;58.10
74224;SHT31;62585;49.706;18.216;2023-06-14T12:50:07;19.20;57.32
74224;SHT31;62585;49.706;18.216;2023-06-14T12:52:33;19.06;58.34
74224;SHT31;62585;49.706;18.216;2023-06-14T12:55:04;19.75;59.02
74224;SHT31;62585;49.706;18.216;2023-06-14T12:57:31;20.58;54.39
74224;SHT31;62585;49.706;18.216;2023-06-14T12:59:57;21.18;54.90
74224;SHT31;62585;49.706;18.216;2023-06-14T13:02:23;21.53;50.90
74224;SHT31;62585;49.706;18.216;2023-06-14T13:04:50;22.15;52.01
74224;SHT31;62585;49.706;18.216;2023-06-14T13:07:16;21.90;50.04
74224;SHT31;62585;49.706;18.216;2023-06-14T13:09:42;21.47;51.85
74224;SHT31;62585;49.706;18.216;2023-06-14T13:12:10;21.46;47.84
74224;SHT31;62585;49.706;18.216;2023-06-14T13:14:40;21.32;48.35
74224;SHT31;62585;49.706;18.216;2023-06-14T13:17:09;21.84;55.41
74224;SHT31;62585;49.706;18.216;2023-06-14T13:19:35;21.45;51.98
74224;SHT31;62585;49.706;18.216;2023-06-14T13:22:02;21.32;52.58
74224;SHT31;62585;49.706;18.216;2023-06-14T13:24:28;21.53;53.40
74224;SHT31;62585;49.706;18.216;2023-06-14T13:26:57;20.88;52.99
74224;SHT31;62585;49.706;18.216;2023-06-14T13:29:23;20.55;55.07
74224;SHT31;62585;49.706;18.216;2023-06-14T13:31:50;21.40;51.23
74224;SHT31;62585;49.706;18.216;2023-06-14T13:34:15;21.66;49.14
74224;SHT31;62585;49.706;18.216;2023-06-14T13:36:41;21.53;50.86
74224;SHT31;62585;49.706;18.216;2023-06-14T13:39:07;22.48;49.52
74224;SHT31;62585;49.706;18.216;2023-06-14T13:41:33;22.45;51.81
74224;SHT31;62585;49.706;18.216;2023-06-14T13:44:00;21.83;50.49
74224;SHT31;62585;49.706;18.216;2023-06-14T13:46:26;22.26;49.97
74224;SHT31;62585;49.706;18.216;2023-06-14T13:48:52;21.78;48.97
74224;SHT31;62585;49.706;18.216;2023-06-14T13:51:18;22.06;48.98
74224;SHT31;62585;49.706;18.216;2023-06-14T13:53:48;22.49;47.09
74224;SHT31;62585;49.706;18.216;2023-06-14T13:56:15;22.50;50.71
74224;SHT31;62585;49.706;18.216;2023-06-14T13:58:41;22.42;49.20
74224;SHT31;62585;49.706;18.216;2023-06-14T14:01:07;22.79;48.85
74224;SHT31;62585;49.706;18.216;2023-06-14T14:03:33;22.88;50.32
74224;SHT31;62585;49.706;18.216;2023-06-14T14:06:00;22.61;46.57
74224;SHT31;62585;49.706;18.216;2023-06-14T14:08:27;22.83;48.19
74224;SHT31;62585;49.706;18.216;2023-06-14T14:10:53;22.64;51.36
74224;SHT31;62585;49.706;18.216;2023-06-14T14:13:18;22.98;50.33
74224;SHT31;62585;49.706;18.216;2023-06-14T14:15:44;22.71;52.27
74224;SHT31;62585;49.706;18.216;2023-06-14T14:18:10;22.39;50.50
74224;SHT31;62585;49.706;18.216;2023-06-14T14:20:36;22.84;51.35
74224;SHT31;62585;49.706;18.216;2023-06-14T14:23:01;22.25;51.42
74224;SHT31;62585;49.706;18.216;2023-06-14T14:25:27;22.11;50.45
74224;SHT31;62585;49.706;18.216;2023-06-14T14:27:53;21.40;53.39
74224;SHT31;62585;49.706;18.216;2023-06-14T14:30:19;21.50;55.94
74224;SHT31;62585;49.706;18.216;2023-06-14T14:32:51;21.37;54.44
74224;SHT31;62585;49.706;18.216;2023-06-14T14:35:18;21.33;54.02
74224;SHT31;62585;49.706;18.216;2023-06-14T14:37:44;21.03;56.64
74224;SHT31;62585;49.706;18.216;2023-06-14T14:40:11;20.94;53.05
74224;SHT31;62585;49.706;18.216;2023-06-14T14:42:37;20.77;53.08
74224;SHT31;62585;49.706;18.216;2023-06-14T14:45:04;20.89;56.17
74224;SHT31;62585;49.706;18.216;2023-06-14T14:47:30;21.63;56.09
74224;SHT31;62585;49.706;18.216;2023-06-14T14:49:56;22.09;52.00
74224;SHT31;62585;49.706;18.216;2023-06-14T14:52:21;22.29;52.48
74224;SHT31;62585;49.706;18.216;2023-06-14T14:54:47;22.32;53.76
74224;SHT31;62585;49.706;18.216;2023-06-14T14:57:13;22.31;50.29
74224;SHT31;62585;49.706;18.216;2023-06-14T14:59:39;21.57;54.97
74224;SHT31;62585;49.706;18.216;2023-06-14T15:02:05;21.84;54.62
74224;SHT31;62585;49.706;18.216;2023-06-14T15:04:32;21.91;52.98
74224;SHT31;62585;49.706;18.216;2023-06-14T15:07:00;22.11;54.59
74224;SHT31;62585;49.706;18.216;2023-06-14T15:09:26;21.94;53.03
74224;SHT31;62585;49.706;18.216;2023-06-14T15:11:52;22.09;53.48
74224;SHT31;62585;49.706;18.216;2023-06-14T15:14:19;22.64;52.39
74224;SHT31;62585;49.706;18.216;2023-06-14T15:16:45;21.68;51.98
74224;SHT31;62585;49.706;18.216;2023-06-14T15:19:11;21.39;54.11
74224;SHT31;62585;49.706;18.216;2023-06-14T15:21:37;21.51;53.35
74224;SHT31;62585;49.706;18.216;2023-06-14T15:24:03;21.10;54.43
74224;SHT31;62585;49.706;18.216;2023-06-14T15:26:29;20.99;55.75
74224;SHT31;62585;49.706;18.216;2023-06-14T15:28:55;20.91;55.95
74224;SHT31;62585;49.706;18.216;2023-06-14T15:31:20;20.79;57.19
74224;SHT31;62585;49.706;18.216;2023-06-14T15:33:49;20.71;56.76
74224;SHT31;62585;49.706;18.216;2023-06-14T15:38:44;20.77;56.90
74224;SHT31;62585;49.706;18.216;2023-06-14T15:41:12;20.89;56.48
74224;SHT31;62585;49.706;18.216;2023-06-14T15:43:38;21.20;55.31